sensor_id;sensor_type;location;lat;lon;timestamp;pressure;altitude;pressure_sealevel;temperature;humidity
36092;BME280;22147;52.388;13.390;2023-02-19T00:01:42;100845.84;;;4.18;100.00
36092;BME280;22147;52.388;13.390;2023-02-19T00:04:20;100850.53;;;4.13;100.00
36092;BME280;22147;52.388;13.390;2023-02-19T00:06:50;100850.00;;;4.11;100.00
36092;BME280;22147;52.388;13.390;2023-02-19T00:09:21;100848.28;;;4.30;100.00
36092;BME280;22147;52.388;13.390;2023-02-19T00:11:50;100855.75;;;4.14;100.00
36092;BME280;22147;52.388;13.390;2023-02-19T00:14:20;100851.94;;;4.10;100.00
36092;BME280;22147;52.388;13.390;2023-02-19T00:16:50;100841.25;;;4.03;100.00
36092;BME280;22147;52.388;13.390;2023-02-19T00:19:20;100849.22;;;4.00;100.00
36092;BME280;22147;52.388;13.390;2023-02-19T00:21:52;100844.81;;;4.09;100.00
36092;BME280;22147;52.388;13.390;2023-02-19T00:24:21;100839.84;;;4.06;100.00
36092;BME280;22147;52.388;13.390;2023-02-19T00:26:51;100840.97;;;4.00;100.00
36092;BME280;22147;52.388;13.390;2023-02-19T00:29:21;100835.75;;;4.03;100.00
36092;BME280;22147;52.388;13.390;2023-02-19T00:31:51;100834.94;;;3.98;100.00
36092;BME280;22147;52.388;13.390;2023-02-19T00:34:21;100830.28;;;3.93;100.00
36092;BME280;22147;52.388;13.390;2023-02-19T00:36:51;100830.00;;;3.95;100.00
36092;BME280;22147;52.388;13.390;2023-02-19T00:39:21;100826.44;;;3.94;100.00
36092;BME280;22147;52.388;13.390;2023-02-19T00:41:50;100822.81;;;4.04;100.00
36092;BME280;22147;52.388;13.390;2023-02-19T00:44:20;100824.53;;;3.95;100.00
36092;BME280;22147;52.388;13.390;2023-02-19T00:46:50;100822.31;;;3.97;100.00
36092;BME280;22147;52.388;13.390;2023-02-19T00:49:22;100828.09;;;3.95;100.00
36092;BME280;22147;52.388;13.390;2023-02-19T00:51:52;100831.94;;;3.94;100.00
36092;BME280;22147;52.388;13.390;2023-02-19T00:54:22;100827.53;;;3.93;100.00
36092;BME280;22147;52.388;13.390;2023-02-19T00:56:52;100825.09;;;3.92;100.00
36092;BME280;22147;52.388;13.390;2023-02-19T00:59:22;100818.22;;;3.94;100.00
36092;BME280;22147;52.388;13.390;2023-02-19T01:01:52;100819.59;;;3.92;100.00
36092;BME280;22147;52.388;13.390;2023-02-19T01:04:22;100813.84;;;3.88;100.00
36092;BME280;22147;52.388;13.390;2023-02-19T01:06:50;100809.97;;;3.89;100.00
36092;BME280;22147;52.388;13.390;2023-02-19T01:09:19;100813.84;;;3.88;100.00
36092;BME280;22147;52.388;13.390;2023-02-19T01:11:47;100813.84;;;3.88;100.00
36092;BME280;22147;52.388;13.390;2023-02-19T01:14:16;100814.09;;;3.86;100.00
36092;BME280;22147;52.388;13.390;2023-02-19T01:16:44;100805.84;;;3.92;100.00
36092;BME280;22147;52.388;13.390;2023-02-19T01:19:13;100802.28;;;3.91;100.00
36092;BME280;22147;52.388;13.390;2023-02-19T01:21:41;100791.53;;;3.95;100.00
36092;BME280;22147;52.388;13.390;2023-02-19T01:24:09;100776.44;;;3.92;100.00
36092;BME280;22147;52.388;13.390;2023-02-19T01:26:38;100768.22;;;3.87;100.00
36092;BME280;22147;52.388;13.390;2023-02-19T01:29:06;100755.06;;;3.84;100.00
36092;BME280;22147;52.388;13.390;2023-02-19T01:31:35;100733.88;;;3.84;100.00
36092;BME280;22147;52.388;13.390;2023-02-19T01:34:03;100753.94;;;3.85;100.00
36092;BME280;22147;52.388;13.390;2023-02-19T01:36:33;100760.81;;;3.82;100.00
36092;BME280;22147;52.388;13.390;2023-02-19T01:39:03;100769.06;;;3.87;100.00
36092;BME280;22147;52.388;13.390;2023-02-19T01:41:37;100751.50;;;3.83;100.00
36092;BME280;22147;52.388;13.390;2023-02-19T01:46:57;100747.03;;;3.93;100.00
36092;BME280;22147;52.388;13.390;2023-02-19T01:49:32;100747.03;;;3.93;100.00
36092;BME280;22147;52.388;13.390;2023-02-19T01:52:23;100746.22;;;3.87;100.00
36092;BME280;22147;52.388;13.390;2023-02-19T01:55:02;100736.59;;;3.95;100.00
36092;BME280;22147;52.388;13.390;2023-02-19T01:57:40;100734.09;;;3.93;100.00
36092;BME280;22147;52.388;13.390;2023-02-19T02:00:16;100733.88;;;3.90;100.00
36092;BME280;22147;52.388;13.390;2023-02-19T02:02:53;100728.97;;;3.81;100.00
36092;BME280;22147;52.388;13.390;2023-02-19T02:05:52;100738.84;;;3.82;100.00
36092;BME280;22147;52.388;13.390;2023-02-19T02:08:26;100728.38;;;3.84;100.00
36092;BME280;22147;52.388;13.390;2023-02-19T02:11:13;100725.06;;;3.93;100.00
36092;BME280;22147;52.388;13.390;2023-02-19T02:13:42;100722.91;;;3.84;100.00
36092;BME280;22147;52.388;13.390;2023-02-19T02:19:25;100722.94;;;3.79;100.00
36092;BME280;22147;52.388;13.390;2023-02-19T02:34:00;100714.16;;;3.77;100.00
36092;BME280;22147;52.388;13.390;2023-02-19T02:36:41;100724.06;;;3.73;100.00
36092;BME280;22147;52.388;13.390;2023-02-19T02:39:16;100716.91;;;3.72;100.00
36092;BME280;22147;52.388;13.390;2023-02-19T02:41:56;100705.91;;;3.72;100.00
36092;BME280;22147;52.388;13.390;2023-02-19T02:44:46;100699.06;;;3.70;100.00
36092;BME280;22147;52.388;13.390;2023-02-19T02:47:46;100693.31;;;3.71;100.00
36092;BME280;22147;52.388;13.390;2023-02-19T02:50:37;100690.06;;;3.59;100.00
36092;BME280;22147;52.388;13.390;2023-02-19T02:53:46;100695.31;;;3.50;100.00
36092;BME280;22147;52.388;13.390;2023-02-19T02:57:00;100700.00;;;3.44;100.00
36092;BME280;22147;52.388;13.390;2023-02-19T02:59:36;100699.78;;;3.41;100.00
36092;BME280;22147;52.388;13.390;2023-02-19T03:02:16;100706.34;;;3.40;100.00
36092;BME280;22147;52.388;13.390;2023-02-19T03:05:20;100709.66;;;3.32;100.00
36092;BME280;22147;52.388;13.390;2023-02-19T03:08:26;100716.00;;;3.27;100.00
36092;BME280;22147;52.388;13.390;2023-02-19T03:11:06;100713.28;;;3.22;100.00
36092;BME280;22147;52.388;13.390;2023-02-19T03:14:13;100714.34;;;3.31;100.00
36092;BME280;22147;52.388;13.390;2023-02-19T03:17:17;100712.97;;;3.23;100.00
36092;BME280;22147;52.388;13.390;2023-02-19T03:20:24;100717.69;;;3.18;100.00
36092;BME280;22147;52.388;13.390;2023-02-19T03:22:58;100719.34;;;3.09;100.00
36092;BME280;22147;52.388;13.390;2023-02-19T03:25:34;100717.97;;;3.11;100.00
36092;BME280;22147;52.388;13.390;2023-02-19T03:28:31;100718.25;;;3.10;100.00
36092;BME280;22147;52.388;13.390;2023-02-19T03:31:25;100718.25;;;3.04;100.00
36092;BME280;22147;52.388;13.390;2023-02-19T03:34:07;100717.47;;;2.99;100.00
36092;BME280;22147;52.388;13.390;2023-02-19T03:36:52;100721.03;;;2.89;100.00
36092;BME280;22147;52.388;13.390;2023-02-19T03:39:32;100727.63;;;2.83;100.00
36092;BME280;22147;52.388;13.390;2023-02-19T03:49:15;100733.41;;;2.51;100.00
36092;BME280;22147;52.388;13.390;2023-02-19T03:52:15;100738.06;;;2.55;100.00
36092;BME280;22147;52.388;13.390;2023-02-19T03:55:04;100747.91;;;2.41;100.00
36092;BME280;22147;52.388;13.390;2023-02-19T03:58:10;100749.81;;;2.30;100.00
36092;BME280;22147;52.388;13.390;2023-02-19T04:01:10;100746.81;;;2.16;100.00
36092;BME280;22147;52.388;13.390;2023-02-19T04:04:03;100755.59;;;2.18;100.00
36092;BME280;22147;52.388;13.390;2023-02-19T04:06:49;100753.09;;;2.12;100.00
36092;BME280;22147;52.388;13.390;2023-02-19T04:09:30;100758.03;;;2.10;100.00
36092;BME280;22147;52.388;13.390;2023-02-19T04:12:10;100762.66;;;2.09;100.00
36092;BME280;22147;52.388;13.390;2023-02-19T04:15:01;100773.88;;;1.97;100.00
36092;BME280;22147;52.388;13.390;2023-02-19T04:17:41;100771.41;;;1.96;100.00
36092;BME280;22147;52.388;13.390;2023-02-19T04:20:20;100780.13;;;1.82;100.00
36092;BME280;22147;52.388;13.390;2023-02-19T04:22:52;100775.69;;;1.71;100.00
36092;BME280;22147;52.388;13.390;2023-02-19T04:25:25;100781.72;;;1.68;100.00
36092;BME280;22147;52.388;13.390;2023-02-19T04:27:58;100789.06;;;1.57;100.00
36092;BME280;22147;52.388;13.390;2023-02-19T04:30:26;100793.72;;;1.57;100.00
36092;BME280;22147;52.388;13.390;2023-02-19T04:32:54;100800.28;;;1.56;100.00
36092;BME280;22147;52.388;13.390;2023-02-19T04:35:22;100801.09;;;1.56;100.00
36092;BME280;22147;52.388;13.390;2023-02-19T04:37:51;100809.31;;;1.56;100.00
36092;BME280;22147;52.388;13.390;2023-02-19T04:40:19;100812.53;;;1.48;100.00
36092;BME280;22147;52.388;13.390;2023-02-19T04:42:47;100796.66;;;1.50;100.00
36092;BME280;22147;52.388;13.390;2023-02-19T04:45:16;100807.66;;;1.55;100.00
36092;BME280;22147;52.388;13.390;2023-02-19T04:47:44;100809.28;;;1.51;100.00
36092;BME280;22147;52.388;13.390;2023-02-19T04:50:13;100809.53;;;1.45;100.00
36092;BME280;22147;52.388;13.390;2023-02-19T04:52:41;100796.91;;;1.43;100.00
36092;BME280;22147;52.388;13.390;2023-02-19T04:55:10;100802.94;;;1.40;100.00
36092;BME280;22147;52.388;13.390;2023-02-19T04:57:38;100801.56;;;1.38;100.00
36092;BME280;22147;52.388;13.390;2023-02-19T05:00:08;100804.81;;;1.35;100.00
36092;BME280;22147;52.388;13.390;2023-02-19T05:02:38;100808.09;;;1.37;100.00
36092;BME280;22147;52.388;13.390;2023-02-19T05:05:08;100818.22;;;1.36;100.00
36092;BME280;22147;52.388;13.390;2023-02-19T05:07:38;100804.81;;;1.35;100.00
36092;BME280;22147;52.388;13.390;2023-02-19T05:10:08;100815.50;;;1.36;100.00
36092;BME280;22147;52.388;13.390;2023-02-19T05:12:38;100813.34;;;1.43;100.00
36092;BME280;22147;52.388;13.390;2023-02-19T05:15:09;100810.31;;;1.40;100.00
36092;BME280;22147;52.388;13.390;2023-02-19T05:17:39;100809.22;;;1.36;100.00
36092;BME280;22147;52.388;13.390;2023-02-19T05:20:09;100818.81;;;1.43;100.00
36092;BME280;22147;52.388;13.390;2023-02-19T05:22:39;100810.59;;;1.38;100.00
36092;BME280;22147;52.388;13.390;2023-02-19T05:25:09;100812.22;;;1.39;100.00
36092;BME280;22147;52.388;13.390;2023-02-19T05:27:39;100809.78;;;1.38;100.00
36092;BME280;22147;52.388;13.390;2023-02-19T05:30:10;100809.78;;;1.38;100.00
36092;BME280;22147;52.388;13.390;2023-02-19T05:32:41;100820.16;;;1.41;100.00
36092;BME280;22147;52.388;13.390;2023-02-19T05:35:11;100822.91;;;1.41;100.00
36092;BME280;22147;52.388;13.390;2023-02-19T05:37:41;100814.41;;;1.37;100.00
36092;BME280;22147;52.388;13.390;2023-02-19T05:40:11;100826.97;;;1.33;100.00
36092;BME280;22147;52.388;13.390;2023-02-19T05:42:41;100828.63;;;1.39;100.00
36092;BME280;22147;52.388;13.390;2023-02-19T05:45:11;100824.53;;;1.37;100.00
36092;BME280;22147;52.388;13.390;2023-02-19T05:47:41;100820.16;;;1.36;100.00
36092;BME280;22147;52.388;13.390;2023-02-19T05:50:11;100827.00;;;1.38;100.00
36092;BME280;22147;52.388;13.390;2023-02-19T05:52:41;100831.94;;;1.41;100.00
36092;BME280;22147;52.388;13.390;2023-02-19T05:55:12;100826.19;;;1.38;100.00
36092;BME280;22147;52.388;13.390;2023-02-19T05:57:46;100832.78;;;1.42;100.00
36092;BME280;22147;52.388;13.390;2023-02-19T06:00:19;100839.34;;;1.41;100.00
36092;BME280;22147;52.388;13.390;2023-02-19T06:02:49;100829.50;;;1.40;100.00
36092;BME280;22147;52.388;13.390;2023-02-19T06:05:19;100836.28;;;1.37;100.00
36092;BME280;22147;52.388;13.390;2023-02-19T06:07:49;100841.19;;;1.35;100.00
36092;BME280;22147;52.388;13.390;2023-02-19T06:10:19;100845.06;;;1.39;100.00
36092;BME280;22147;52.388;13.390;2023-02-19T06:12:53;100851.38;;;1.40;100.00
36092;BME280;22147;52.388;13.390;2023-02-19T06:15:23;100846.16;;;1.38;100.00
36092;BME280;22147;52.388;13.390;2023-02-19T06:17:53;100851.88;;;1.32;100.00
36092;BME280;22147;52.388;13.390;2023-02-19T06:20:23;100855.97;;;1.29;100.00
36092;BME280;22147;52.388;13.390;2023-02-19T06:22:55;100863.94;;;1.36;100.00
36092;BME280;22147;52.388;13.390;2023-02-19T06:25:25;100858.69;;;1.29;100.00
36092;BME280;22147;52.388;13.390;2023-02-19T06:27:55;100867.16;;;1.28;100.00
36092;BME280;22147;52.388;13.390;2023-02-19T06:30:25;100863.41;;;1.39;100.00
36092;BME280;22147;52.388;13.390;2023-02-19T06:32:55;100865.09;;;1.50;100.00
36092;BME280;22147;52.388;13.390;2023-02-19T06:35:25;100872.19;;;1.41;100.00
36092;BME280;22147;52.388;13.390;2023-02-19T06:37:55;100866.13;;;1.34;100.00
36092;BME280;22147;52.388;13.390;2023-02-19T06:40:26;100868.38;;;1.47;100.00
36092;BME280;22147;52.388;13.390;2023-02-19T06:42:56;100858.53;;;1.46;100.00
36092;BME280;22147;52.388;13.390;2023-02-19T06:45:26;100865.84;;;1.35;100.00
36092;BME280;22147;52.388;13.390;2023-02-19T06:47:55;100881.69;;;1.33;100.00
36092;BME280;22147;52.388;13.390;2023-02-19T06:50:26;100886.91;;;1.35;100.00
36092;BME280;22147;52.388;13.390;2023-02-19T06:52:56;100902.50;;;1.34;100.00
36092;BME280;22147;52.388;13.390;2023-02-19T06:55:24;100912.88;;;1.27;100.00
36092;BME280;22147;52.388;13.390;2023-02-19T06:57:52;100921.91;;;1.33;100.00
36092;BME280;22147;52.388;13.390;2023-02-19T07:00:21;100937.78;;;1.31;100.00
36092;BME280;22147;52.388;13.390;2023-02-19T07:02:49;100937.28;;;1.34;100.00
36092;BME280;22147;52.388;13.390;2023-02-19T07:05:25;100939.78;;;1.40;100.00
36092;BME280;22147;52.388;13.390;2023-02-19T07:07:55;100944.72;;;1.43;100.00
36092;BME280;22147;52.388;13.390;2023-02-19T07:10:25;100943.50;;;1.61;100.00
36092;BME280;22147;52.388;13.390;2023-02-19T07:12:55;100938.59;;;1.63;100.00
36092;BME280;22147;52.388;13.390;2023-02-19T07:15:25;100942.41;;;1.62;100.00
36092;BME280;22147;52.388;13.390;2023-02-19T07:17:55;100946.88;;;1.74;100.00
36092;BME280;22147;52.388;13.390;2023-02-19T07:20:25;100950.03;;;1.55;100.00
36092;BME280;22147;52.388;13.390;2023-02-19T07:22:56;100960.44;;;1.58;100.00
36092;BME280;22147;52.388;13.390;2023-02-19T07:25:26;100961.63;;;1.73;100.00
36092;BME280;22147;52.388;13.390;2023-02-19T07:27:56;100971.53;;;1.79;100.00
36092;BME280;22147;52.388;13.390;2023-02-19T07:30:26;100967.38;;;1.71;100.00
36092;BME280;22147;52.388;13.390;2023-02-19T07:32:56;100967.75;;;1.80;100.00
36092;BME280;22147;52.388;13.390;2023-02-19T07:35:27;100975.72;;;1.87;100.00
36092;BME280;22147;52.388;13.390;2023-02-19T07:37:57;100972.44;;;1.90;100.00
36092;BME280;22147;52.388;13.390;2023-02-19T07:40:27;100976.59;;;1.97;100.00
36092;BME280;22147;52.388;13.390;2023-02-19T07:42:58;100982.84;;;1.88;100.00
36092;BME280;22147;52.388;13.390;2023-02-19T07:45:29;100986.69;;;1.92;100.00
36092;BME280;22147;52.388;13.390;2023-02-19T07:47:59;100981.28;;;2.02;100.00
36092;BME280;22147;52.388;13.390;2023-02-19T07:50:29;100989.84;;;2.11;100.00
36092;BME280;22147;52.388;13.390;2023-02-19T07:52:59;101002.38;;;2.01;100.00
36092;BME280;22147;52.388;13.390;2023-02-19T07:55:31;100998.84;;;2.06;100.00
36092;BME280;22147;52.388;13.390;2023-02-19T07:58:02;101002.78;;;2.26;100.00
36092;BME280;22147;52.388;13.390;2023-02-19T08:00:33;101008.25;;;2.20;100.00
36092;BME280;22147;52.388;13.390;2023-02-19T08:03:02;101016.44;;;2.15;100.00
36092;BME280;22147;52.388;13.390;2023-02-19T08:05:39;101024.09;;;2.13;100.00
36092;BME280;22147;52.388;13.390;2023-02-19T08:08:13;101029.94;;;2.27;100.00
36092;BME280;22147;52.388;13.390;2023-02-19T08:10:44;101034.44;;;2.49;100.00
36092;BME280;22147;52.388;13.390;2023-02-19T08:13:33;101047.84;;;2.45;100.00
36092;BME280;22147;52.388;13.390;2023-02-19T08:18:47;101050.31;;;2.41;100.00
36092;BME280;22147;52.388;13.390;2023-02-19T08:21:16;101055.75;;;2.31;100.00
36092;BME280;22147;52.388;13.390;2023-02-19T08:23:46;101063.19;;;2.41;100.00
36092;BME280;22147;52.388;13.390;2023-02-19T08:26:20;101063.28;;;2.56;100.00
36092;BME280;22147;52.388;13.390;2023-02-19T08:28:49;101078.69;;;2.62;100.00
36092;BME280;22147;52.388;13.390;2023-02-19T08:31:19;101077.94;;;2.77;100.00
36092;BME280;22147;52.388;13.390;2023-02-19T08:33:49;101092.25;;;3.00;100.00
36092;BME280;22147;52.388;13.390;2023-02-19T08:36:19;101102.22;;;3.11;100.00
36092;BME280;22147;52.388;13.390;2023-02-19T08:38:49;101109.31;;;3.07;100.00
36092;BME280;22147;52.388;13.390;2023-02-19T08:41:20;101113.34;;;2.89;100.00
36092;BME280;22147;52.388;13.390;2023-02-19T08:43:49;101107.34;;;2.97;100.00
36092;BME280;22147;52.388;13.390;2023-02-19T08:46:19;101117.84;;;3.11;100.00
36092;BME280;22147;52.388;13.390;2023-02-19T08:48:50;101117.63;;;3.22;100.00
36092;BME280;22147;52.388;13.390;2023-02-19T08:51:20;101122.84;;;3.29;100.00
36092;BME280;22147;52.388;13.390;2023-02-19T08:53:50;101127.56;;;3.44;100.00
36092;BME280;22147;52.388;13.390;2023-02-19T08:56:20;101126.75;;;3.49;100.00
36092;BME280;22147;52.388;13.390;2023-02-19T08:58:50;101137.47;;;3.50;100.00
36092;BME280;22147;52.388;13.390;2023-02-19T09:01:20;101146.81;;;3.59;100.00
36092;BME280;22147;52.388;13.390;2023-02-19T09:03:49;101140.94;;;3.30;100.00
36092;BME280;22147;52.388;13.390;2023-02-19T09:06:20;101148.41;;;3.40;100.00
36092;BME280;22147;52.388;13.390;2023-02-19T09:08:50;101153.69;;;3.57;100.00
36092;BME280;22147;52.388;13.390;2023-02-19T09:11:20;101154.53;;;3.83;100.00
36092;BME280;22147;52.388;13.390;2023-02-19T09:13:48;101145.47;;;3.82;100.00
36092;BME280;22147;52.388;13.390;2023-02-19T09:16:17;101157.31;;;3.73;100.00
36092;BME280;22147;52.388;13.390;2023-02-19T09:18:45;101155.06;;;3.54;100.00
36092;BME280;22147;52.388;13.390;2023-02-19T09:21:13;101157.34;;;3.98;100.00
36092;BME280;22147;52.388;13.390;2023-02-19T09:23:42;101165.53;;;3.83;100.00
36092;BME280;22147;52.388;13.390;2023-02-19T09:26:10;101163.09;;;3.92;100.00
36092;BME280;22147;52.388;13.390;2023-02-19T09:28:42;101166.94;;;4.06;100.00
36092;BME280;22147;52.388;13.390;2023-02-19T09:31:14;101168.03;;;3.90;100.00
36092;BME280;22147;52.388;13.390;2023-02-19T09:33:47;101178.22;;;4.10;100.00
36092;BME280;22147;52.388;13.390;2023-02-19T09:36:17;101176.56;;;3.88;100.00
36092;BME280;22147;52.388;13.390;2023-02-19T09:38:47;101182.06;;;4.03;100.00
36092;BME280;22147;52.388;13.390;2023-02-19T09:41:31;101191.38;;;3.77;100.00
36092;BME280;22147;52.388;13.390;2023-02-19T09:44:05;101190.31;;;4.03;100.00
36092;BME280;22147;52.388;13.390;2023-02-19T09:46:49;101182.59;;;3.95;100.00
36092;BME280;22147;52.388;13.390;2023-02-19T09:49:31;101195.00;;;4.03;100.00
36092;BME280;22147;52.388;13.390;2023-02-19T09:52:12;101195.84;;;4.08;100.00
36092;BME280;22147;52.388;13.390;2023-02-19T09:54:53;101210.97;;;4.42;100.00
36092;BME280;22147;52.388;13.390;2023-02-19T09:57:32;101202.16;;;4.40;100.00
36092;BME280;22147;52.388;13.390;2023-02-19T10:03:08;101218.41;;;4.62;100.00
36092;BME280;22147;52.388;13.390;2023-02-19T10:05:48;101214.00;;;4.30;100.00
36092;BME280;22147;52.388;13.390;2023-02-19T10:08:19;101225.56;;;4.42;100.00
36092;BME280;22147;52.388;13.390;2023-02-19T10:10:52;101221.69;;;4.28;100.00
36092;BME280;22147;52.388;13.390;2023-02-19T10:16:11;101245.22;;;3.78;100.00
36092;BME280;22147;52.388;13.390;2023-02-19T10:18:45;101238.09;;;3.82;100.00
36092;BME280;22147;52.388;13.390;2023-02-19T10:21:25;101243.81;;;3.70;100.00
36092;BME280;22147;52.388;13.390;2023-02-19T10:24:01;101249.38;;;3.85;100.00
36092;BME280;22147;52.388;13.390;2023-02-19T10:26:34;101264.78;;;4.02;100.00
36092;BME280;22147;52.388;13.390;2023-02-19T10:29:05;101270.13;;;4.60;100.00
36092;BME280;22147;52.388;13.390;2023-02-19T10:31:35;101267.59;;;4.99;100.00
36092;BME280;22147;52.388;13.390;2023-02-19T10:34:21;101280.72;;;5.48;100.00
36092;BME280;22147;52.388;13.390;2023-02-19T10:36:52;101271.91;;;5.41;100.00
36092;BME280;22147;52.388;13.390;2023-02-19T10:41:52;101284.34;;;5.34;100.00
36092;BME280;22147;52.388;13.390;2023-02-19T10:44:46;101292.06;;;5.32;100.00
36092;BME280;22147;52.388;13.390;2023-02-19T10:47:25;101289.78;;;5.54;100.00
36092;BME280;22147;52.388;13.390;2023-02-19T10:49:59;101301.50;;;5.96;100.00
36092;BME280;22147;52.388;13.390;2023-02-19T10:52:34;101298.63;;;6.21;100.00
36092;BME280;22147;52.388;13.390;2023-02-19T10:57:52;101300.47;;;5.71;100.00
36092;BME280;22147;52.388;13.390;2023-02-19T11:00:29;101301.25;;;6.42;100.00
36092;BME280;22147;52.388;13.390;2023-02-19T11:03:21;101317.13;;;6.60;100.00
36092;BME280;22147;52.388;13.390;2023-02-19T11:06:06;101321.50;;;6.27;100.00
36092;BME280;22147;52.388;13.390;2023-02-19T11:08:58;101318.88;;;5.91;100.00
36092;BME280;22147;52.388;13.390;2023-02-19T11:11:38;101321.94;;;5.79;100.00
36092;BME280;22147;52.388;13.390;2023-02-19T11:14:32;101324.81;;;6.24;100.00
36092;BME280;22147;52.388;13.390;2023-02-19T11:17:04;101336.06;;;6.32;100.00
36092;BME280;22147;52.388;13.390;2023-02-19T11:19:38;101337.13;;;6.37;100.00
36092;BME280;22147;52.388;13.390;2023-02-19T11:22:23;101340.38;;;6.49;100.00
36092;BME280;22147;52.388;13.390;2023-02-19T11:28:05;101360.78;;;5.98;100.00
36092;BME280;22147;52.388;13.390;2023-02-19T11:30:43;101356.44;;;5.71;99.83
36092;BME280;22147;52.388;13.390;2023-02-19T11:35:46;101349.63;;;5.38;100.00
36092;BME280;22147;52.388;13.390;2023-02-19T11:38:18;101352.66;;;5.26;100.00
36092;BME280;22147;52.388;13.390;2023-02-19T11:41:12;101352.97;;;5.15;100.00
36092;BME280;22147;52.388;13.390;2023-02-19T11:50:27;101357.84;;;5.64;100.00
36092;BME280;22147;52.388;13.390;2023-02-19T11:53:34;101363.22;;;6.05;100.00
36092;BME280;22147;52.388;13.390;2023-02-19T11:56:13;101364.03;;;6.10;97.77
36092;BME280;22147;52.388;13.390;2023-02-19T12:02:21;101353.09;;;5.95;95.79
36092;BME280;22147;52.388;13.390;2023-02-19T12:11:16;101366.25;;;6.08;84.30
36092;BME280;22147;52.388;13.390;2023-02-19T12:28:37;101375.25;;;5.18;90.56
36092;BME280;22147;52.388;13.390;2023-02-19T12:32:04;101380.72;;;5.59;88.53
36092;BME280;22147;52.388;13.390;2023-02-19T12:35:30;101389.44;;;6.02;87.27
36092;BME280;22147;52.388;13.390;2023-02-19T12:41:39;101401.59;;;6.01;84.84
36092;BME280;22147;52.388;13.390;2023-02-19T12:44:26;101401.63;;;5.81;86.08
36092;BME280;22147;52.388;13.390;2023-02-19T12:47:28;101402.75;;;5.59;84.52
36092;BME280;22147;52.388;13.390;2023-02-19T12:50:25;101398.94;;;5.19;86.67
36092;BME280;22147;52.388;13.390;2023-02-19T12:53:27;101398.94;;;5.04;85.21
36092;BME280;22147;52.388;13.390;2023-02-19T12:56:41;101407.16;;;4.88;87.02
36092;BME280;22147;52.388;13.390;2023-02-19T13:12:01;101431.16;;;5.08;89.89
36092;BME280;22147;52.388;13.390;2023-02-19T13:14:49;101429.50;;;5.48;87.94
36092;BME280;22147;52.388;13.390;2023-02-19T13:17:56;101435.81;;;5.95;81.87
36092;BME280;22147;52.388;13.390;2023-02-19T13:20:41;101431.63;;;6.03;83.09
36092;BME280;22147;52.388;13.390;2023-02-19T13:23:22;101435.19;;;6.08;82.44
36092;BME280;22147;52.388;13.390;2023-02-19T13:30:03;101433.84;;;6.71;79.13
36092;BME280;22147;52.388;13.390;2023-02-19T13:33:04;101426.75;;;6.49;80.46
36092;BME280;22147;52.388;13.390;2023-02-19T13:36:02;101432.03;;;6.46;80.96
36092;BME280;22147;52.388;13.390;2023-02-19T13:38:45;101418.78;;;6.48;80.67
36092;BME280;22147;52.388;13.390;2023-02-19T13:41:27;101437.19;;;6.63;78.66
36092;BME280;22147;52.388;13.390;2023-02-19T13:44:05;101433.53;;;6.72;76.94
36092;BME280;22147;52.388;13.390;2023-02-19T13:46:41;101426.22;;;6.97;75.79
36092;BME280;22147;52.388;13.390;2023-02-19T13:52:19;101442.50;;;7.33;70.99
36092;BME280;22147;52.388;13.390;2023-02-19T13:58:52;101452.16;;;6.41;72.30
36092;BME280;22147;52.388;13.390;2023-02-19T14:14:49;101475.69;;;6.23;73.99
36092;BME280;22147;52.388;13.390;2023-02-19T14:17:37;101484.03;;;5.87;74.10
36092;BME280;22147;52.388;13.390;2023-02-19T14:30:58;101486.44;;;6.95;69.93
36092;BME280;22147;52.388;13.390;2023-02-19T14:33:36;101481.22;;;6.83;70.00
36092;BME280;22147;52.388;13.390;2023-02-19T14:36:35;101485.13;;;6.82;68.08
36092;BME280;22147;52.388;13.390;2023-02-19T14:39:34;101479.88;;;6.81;71.05
36092;BME280;22147;52.388;13.390;2023-02-19T14:42:21;101483.00;;;6.64;70.99
36092;BME280;22147;52.388;13.390;2023-02-19T14:45:01;101479.25;;;6.34;70.28
36092;BME280;22147;52.388;13.390;2023-02-19T14:47:36;101480.19;;;5.88;74.29
36092;BME280;22147;52.388;13.390;2023-02-19T14:50:15;101482.69;;;5.95;73.39
36092;BME280;22147;52.388;13.390;2023-02-19T14:53:00;101494.75;;;5.94;72.70
36092;BME280;22147;52.388;13.390;2023-02-19T14:55:37;101495.34;;;5.81;75.23
36092;BME280;22147;52.388;13.390;2023-02-19T14:58:25;101497.00;;;5.56;75.50
36092;BME280;22147;52.388;13.390;2023-02-19T15:00:59;101508.88;;;5.57;76.56
36092;BME280;22147;52.388;13.390;2023-02-19T15:03:34;101515.19;;;5.83;73.10
36092;BME280;22147;52.388;13.390;2023-02-19T15:06:12;101511.91;;;5.65;71.25
36092;BME280;22147;52.388;13.390;2023-02-19T15:08:52;101512.16;;;5.84;70.47
36092;BME280;22147;52.388;13.390;2023-02-19T15:11:31;101513.50;;;5.82;69.77
36092;BME280;22147;52.388;13.390;2023-02-19T15:14:05;101514.09;;;5.74;70.16
36092;BME280;22147;52.388;13.390;2023-02-19T15:16:36;101516.56;;;5.49;71.34
36092;BME280;22147;52.388;13.390;2023-02-19T15:19:11;101514.06;;;5.33;72.88
36092;BME280;22147;52.388;13.390;2023-02-19T15:21:46;101516.81;;;5.22;73.73
36092;BME280;22147;52.388;13.390;2023-02-19T15:24:18;101506.59;;;5.02;74.81
36092;BME280;22147;52.388;13.390;2023-02-19T15:26:51;101517.56;;;4.92;76.37
36092;BME280;22147;52.388;13.390;2023-02-19T15:29:26;101520.88;;;4.89;76.56
36092;BME280;22147;52.388;13.390;2023-02-19T15:32:00;101528.03;;;4.95;77.06
36092;BME280;22147;52.388;13.390;2023-02-19T15:34:31;101514.31;;;5.10;76.94
36092;BME280;22147;52.388;13.390;2023-02-19T15:37:06;101506.03;;;5.00;76.03